Goodwell, Oklahoma
Current Conditions -  °F | °C
As of 2:53 PM on Friday 31 Oct 2014 (Local Time) from KGUY Reporting Station
Clear Clear  
Wind Chill: 56°   Ceiling: Unl
Heat Index: 56°   Visibility: 10mi
Dew Point: 28°   Wind: 9mph
Humidity: 34%   Direction: 150°SSE
Pressure: 30.37"   Gusts: NA
Location:  36.6°N, 101.64°W
Report Text: KGUY 311953Z AUTO 15008KT 10SM CLR 13/M02 A3037 RMK AO2 SLP272 T01331022
Loading
Personal Weather Stations






























Interactive Weather Map
Tropical Storm Tracking
New forecast layout! Learn more

10-Day Weather Forecast

Advertisements
Track Severe Weather on mobile